Time;durP1;ratioP1;P1;durP2;ratioP2;P2;SDS_P1;SDS_P2;PMS_P1;PMS_P2;Temp;Humidity;BMP_temperature;BMP_pressure;BME280_temperature;BME280_humidity;BME280_pressure;Samples;Min_cycle;Max_cycle;Signal;HPM_P1;HPM_P2
2023/06/09 02:45:12;;;;;;;9.93;7.43;;;;;;;13.25;100.00;100191.06;5087259;22;20270;-68
2023/06/09 02:47:39;;;;;;;10.00;7.70;;;;;;;13.18;100.00;100200.81;5031902;28;20198;-69
2023/06/09 02:50:07;;;;;;;9.60;7.70;;;;;;;13.16;100.00;100204.31;5026385;28;20952;-68
2023/06/09 02:52:34;;;;;;;10.33;7.60;;;;;;;13.08;100.00;100209.63;5022898;28;20709;-68
2023/06/09 02:55:01;;;;;;;7.50;6.70;;;;;;;12.99;100.00;100204.31;5016995;28;20405;-68
2023/06/09 02:57:28;;;;;;;10.77;8.17;;;;;;;12.92;100.00;100207.88;5016145;28;20206;-68
2023/06/09 02:59:54;;;;;;;9.80;7.57;;;;;;;12.84;100.00;100204.31;5015548;28;20203;-68
2023/06/09 03:02:21;;;;;;;10.00;8.20;;;;;;;12.76;100.00;100200.75;5015540;28;20219;-69
2023/06/09 03:04:47;;;;;;;9.83;8.10;;;;;;;12.75;100.00;100201.63;5011675;28;20201;-69
2023/06/09 03:07:13;;;;;;;9.33;7.60;;;;;;;12.73;100.00;100204.28;5014862;28;20202;-68
2023/06/09 03:09:40;;;;;;;9.00;7.60;;;;;;;12.64;100.00;100206.03;5025748;28;20583;-68
2023/06/09 03:12:07;;;;;;;10.10;7.77;;;;;;;12.63;100.00;100212.25;5018957;28;20249;-68
2023/06/09 03:14:34;;;;;;;10.27;8.13;;;;;;;12.73;100.00;100208.72;5017292;28;20729;-69
2023/06/09 03:17:01;;;;;;;10.50;8.10;;;;;;;12.66;100.00;100210.47;5009425;28;20198;-67
2023/06/09 03:19:28;;;;;;;10.93;7.90;;;;;;;12.69;100.00;100213.13;5017343;28;20278;-68
2023/06/09 03:21:56;;;;;;;9.27;7.60;;;;;;;12.67;100.00;100217.56;5011283;28;20250;-69
2023/06/09 03:24:22;;;;;;;9.73;8.30;;;;;;;12.65;100.00;100219.34;5008852;28;20555;-68
2023/06/09 03:26:49;;;;;;;10.13;8.10;;;;;;;12.69;100.00;100222.88;5011999;28;20208;-68
2023/06/09 03:29:15;;;;;;;10.07;8.10;;;;;;;12.68;100.00;100226.41;5005276;28;20224;-68
2023/06/09 03:31:42;;;;;;;9.53;7.83;;;;;;;12.70;100.00;100227.31;5029057;28;20217;-68
2023/06/09 03:34:08;;;;;;;8.90;7.20;;;;;;;12.73;100.00;100229.97;5006974;28;20672;-69
2023/06/09 03:36:35;;;;;;;10.37;8.30;;;;;;;12.86;100.00;100222.03;5016596;28;20213;-68
2023/06/09 03:39:02;;;;;;;8.73;7.80;;;;;;;13.06;100.00;100226.47;5002703;28;20684;-68
2023/06/09 03:41:29;;;;;;;10.33;8.00;;;;;;;13.22;100.00;100223.00;5009411;28;20690;-68
2023/06/09 03:43:55;;;;;;;8.77;7.83;;;;;;;13.25;100.00;100220.31;5020685;28;20659;-70
2023/06/09 03:46:22;;;;;;;9.20;7.80;;;;;;;13.36;100.00;100225.63;5026940;28;20207;-68
2023/06/09 03:48:49;;;;;;;10.77;8.10;;;;;;;13.40;100.00;100233.59;5014210;28;20224;-67
2023/06/09 03:51:16;;;;;;;10.83;8.50;;;;;;;13.51;100.00;100235.38;5016113;28;20204;-68
2023/06/09 03:53:42;;;;;;;11.20;8.30;;;;;;;13.57;100.00;100222.94;5014945;28;20199;-68
2023/06/09 03:56:08;;;;;;;11.10;7.80;;;;;;;13.73;100.00;100231.81;5016713;28;20686;-68
2023/06/09 03:58:35;;;;;;;15.07;8.43;;;;;;;13.94;100.00;100233.50;5023641;28;20239;-68
2023/06/09 04:01:01;;;;;;;8.80;7.40;;;;;;;13.94;100.00;100226.41;5007155;28;20212;-68
2023/06/09 04:03:28;;;;;;;9.27;8.07;;;;;;;13.94;100.00;100229.06;5014643;28;20219;-68
2023/06/09 04:05:54;;;;;;;9.40;7.83;;;;;;;13.92;100.00;100228.19;5020203;28;20204;-68
2023/06/09 04:08:20;;;;;;;10.23;8.13;;;;;;;13.99;100.00;100229.06;5023441;28;20207;-68
2023/06/09 04:10:47;;;;;;;8.77;7.50;;;;;;;14.07;100.00;100229.94;5002409;28;20220;-68
2023/06/09 04:13:13;;;;;;;10.70;7.43;;;;;;;14.09;100.00;100237.03;5012550;28;20311;-69
2023/06/09 04:15:42;;;;;;;10.20;8.17;;;;;;;14.17;100.00;100228.13;5011348;28;20672;-68
2023/06/09 04:18:08;;;;;;;10.57;7.70;;;;;;;14.30;100.00;100228.06;5006260;28;20579;-68
2023/06/09 04:20:35;;;;;;;9.33;7.73;;;;;;;14.51;100.00;100234.22;5018312;28;20208;-68
2023/06/09 04:23:02;;;;;;;10.60;7.50;;;;;;;14.53;100.00;100237.78;5002864;28;20216;-69
2023/06/09 04:25:28;;;;;;;9.97;7.37;;;;;;;14.49;100.00;100236.91;5016010;28;20211;-68
2023/06/09 04:27:56;;;;;;;9.07;7.50;;;;;;;14.50;100.00;100238.66;5022376;28;20198;-68
2023/06/09 04:30:25;;;;;;;9.40;7.37;;;;;;;14.60;100.00;100236.84;5014055;28;20334;-68
2023/06/09 04:32:53;;;;;;;10.10;8.30;;;;;;;14.77;100.00;100240.28;5011107;28;20593;-68
2023/06/09 04:35:23;;;;;;;9.73;7.73;;;;;;;14.82;100.00;100240.28;5005507;28;20427;-68
2023/06/09 04:37:50;;;;;;;9.30;7.63;;;;;;;14.86;100.00;100237.56;5005939;28;20701;-68
2023/06/09 04:40:23;;;;;;;10.50;7.37;;;;;;;14.92;100.00;100236.66;5009240;28;20679;-70
2023/06/09 04:42:51;;;;;;;9.33;7.27;;;;;;;15.03;100.00;100235.66;5007176;28;20216;-68
2023/06/09 04:45:19;;;;;;;9.73;7.87;;;;;;;15.08;100.00;100240.06;5015063;28;20197;-68
2023/06/09 04:47:48;;;;;;;13.37;7.80;;;;;;;15.17;100.00;100237.34;5011378;28;20196;-69
2023/06/09 04:50:15;;;;;;;10.60;7.90;;;;;;;15.25;100.00;100240.84;5004833;28;20251;-68
2023/06/09 04:52:45;;;;;;;10.10;7.73;;;;;;;15.34;100.00;100235.44;5011202;28;20740;-68
2023/06/09 04:55:12;;;;;;;13.30;7.40;;;;;;;15.48;100.00;100245.97;5002490;28;20205;-68
2023/06/09 04:57:39;;;;;;;9.43;7.50;;;;;;;15.63;100.00;100236.09;5008690;28;20199;-68
2023/06/09 05:00:08;;;;;;;10.17;8.20;;;;;;;15.78;100.00;100239.50;5009525;28;20192;-68
2023/06/09 05:02:35;;;;;;;13.30;8.00;;;;;;;15.89;100.00;100240.28;5017508;28;20213;-70
2023/06/09 05:05:02;;;;;;;10.00;7.73;;;;;;;15.98;100.00;100237.50;5005821;28;20204;-68
2023/06/09 05:07:28;;;;;;;12.23;8.27;;;;;;;16.09;100.00;100238.28;5005521;28;20214;-68
2023/06/09 05:09:54;;;;;;;9.20;7.50;;;;;;;16.20;100.00;100241.69;5006424;28;20228;-68
2023/06/09 05:12:21;;;;;;;10.53;7.33;;;;;;;16.32;100.00;100243.34;5051285;22;20232;-65
2023/06/09 05:14:47;;;;;;;12.83;8.20;;;;;;;16.45;100.00;100238.75;5062187;28;20285;-65
2023/06/09 05:17:14;;;;;;;7.83;7.03;;;;;;;16.57;100.00;100239.44;5061005;28;20286;-65
2023/06/09 05:19:40;;;;;;;12.40;7.47;;;;;;;16.68;99.30;100236.66;5069278;28;20593;-65
2023/06/09 05:22:07;;;;;;;10.57;7.47;;;;;;;16.83;98.71;100240.94;5063081;28;20279;-65
2023/06/09 05:24:34;;;;;;;10.73;8.40;;;;;;;16.94;98.25;100241.66;5052313;28;20679;-66
2023/06/09 05:27:00;;;;;;;12.03;8.00;;;;;;;17.11;97.65;100244.06;5066414;28;20220;-66
2023/06/09 05:29:27;;;;;;;10.63;7.20;;;;;;;17.37;97.15;100243.63;5062305;28;20724;-66
2023/06/09 05:31:53;;;;;;;10.20;7.10;;;;;;;17.63;95.23;100248.56;5065070;28;20285;-66
2023/06/09 05:34:20;;;;;;;10.33;7.27;;;;;;;17.82;92.86;100250.03;5063466;28;20190;-66
2023/06/09 05:36:46;;;;;;;9.07;7.13;;;;;;;17.93;92.54;100255.16;5062006;28;20210;-66
2023/06/09 05:39:13;;;;;;;7.23;6.13;;;;;;;18.01;91.89;100248.78;5069033;28;20277;-66
2023/06/09 05:41:39;;;;;;;13.27;7.47;;;;;;;18.29;88.43;100243.72;5064628;28;20209;-65
2023/06/09 05:44:06;;;;;;;13.93;6.90;;;;;;;18.45;85.13;100247.88;5059741;28;20288;-65
2023/06/09 05:46:37;;;;;;;8.97;6.33;;;;;;;18.66;84.81;100249.25;5061681;28;20542;-66
2023/06/09 05:49:04;;;;;;;12.37;6.17;;;;;;;19.07;83.18;100245.63;5068777;28;20670;-66
2023/06/09 05:51:32;;;;;;;13.60;6.67;;;;;;;19.21;80.48;100255.13;5067829;28;20201;-66
2023/06/09 05:53:59;;;;;;;17.47;7.27;;;;;;;19.34;80.55;100252.13;5068576;28;20246;-66
2023/06/09 05:56:25;;;;;;;14.43;7.10;;;;;;;19.53;79.70;100251.69;5066213;28;20194;-66
2023/06/09 05:58:52;;;;;;;15.63;6.40;;;;;;;19.65;79.10;100252.28;5069850;28;20194;-66
2023/06/09 06:01:19;;;;;;;13.93;6.27;;;;;;;19.71;79.37;100253.94;5049806;28;20263;-66
2023/06/09 06:03:46;;;;;;;9.47;7.10;;;;;;;19.78;79.60;100251.97;5066655;28;20224;-67
2023/06/09 06:06:13;;;;;;;8.17;6.60;;;;;;;19.83;78.70;100252.72;5059781;28;20229;-67
2023/06/09 06:08:39;;;;;;;8.77;6.40;;;;;;;19.91;77.41;100254.25;5059139;28;20209;-66
2023/06/09 06:11:06;;;;;;;9.20;6.47;;;;;;;19.98;77.81;100258.53;5065826;28;20261;-65
2023/06/09 06:13:32;;;;;;;9.63;6.50;;;;;;;20.10;76.59;100269.91;5079769;28;20221;-67
2023/06/09 06:16:00;;;;;;;10.57;6.20;;;;;;;20.19;75.85;100270.53;5089421;28;20201;-66
2023/06/09 06:18:26;;;;;;;9.52;6.00;;;;;;;20.33;75.12;100260.25;5088870;28;20288;-66
2023/06/09 06:20:52;;;;;;;8.95;5.90;;;;;;;20.49;74.94;100273.31;5089627;28;20725;-66
2023/06/09 06:23:19;;;;;;;7.63;5.68;;;;;;;20.55;73.06;100273.13;5082409;28;20243;-66
2023/06/09 06:25:46;;;;;;;6.40;5.70;;;;;;;20.79;71.19;100271.50;5088906;28;20930;-66
2023/06/09 06:28:13;;;;;;;6.03;5.43;;;;;;;21.01;70.43;100275.31;5089429;28;20193;-66
2023/06/09 06:30:40;;;;;;;8.70;5.85;;;;;;;21.00;69.17;100276.25;5089875;28;20506;-66
2023/06/09 06:33:07;;;;;;;6.43;5.68;;;;;;;20.99;69.87;100273.59;5083987;28;20221;-66
2023/06/09 06:35:34;;;;;;;7.13;5.80;;;;;;;21.04;69.61;100279.72;5087325;28;20201;-67
2023/06/09 06:38:01;;;;;;;9.98;5.45;;;;;;;21.08;69.37;100281.38;5087361;28;20216;-66
2023/06/09 06:40:27;;;;;;;5.57;4.97;;;;;;;21.17;68.79;100283.78;5087174;28;20266;-67
2023/06/09 06:42:54;;;;;;;10.55;5.70;;;;;;;21.26;68.40;100280.84;5087908;28;20214;-68
2023/06/09 06:45:22;;;;;;;6.97;5.53;;;;;;;21.43;68.00;100280.28;5088909;28;20665;-67
2023/06/09 06:47:49;;;;;;;8.43;5.80;;;;;;;21.49;67.56;100282.78;5088979;28;20236;-66
2023/06/09 06:50:16;;;;;;;7.63;5.60;;;;;;;21.45;67.41;100273.91;5086520;28;20220;-66
2023/06/09 06:52:42;;;;;;;7.00;5.63;;;;;;;21.59;66.73;100278.84;5089246;28;20304;-66
2023/06/09 06:55:09;;;;;;;9.40;5.70;;;;;;;21.73;67.13;100279.28;5091312;28;20194;-67
2023/06/09 06:57:36;;;;;;;9.95;6.25;;;;;;;21.83;65.53;100277.13;5088438;28;20202;-66
2023/06/09 07:00:12;;;;;;;7.85;5.63;;;;;;;22.18;64.11;100286.72;5088385;28;20566;-66
2023/06/09 07:02:39;;;;;;;6.55;5.35;;;;;;;22.27;63.80;100283.69;5070439;28;20225;-65
2023/06/09 07:05:08;;;;;;;6.50;5.57;;;;;;;22.36;63.12;100286.03;5085003;28;20235;-66
2023/06/09 07:07:35;;;;;;;6.75;5.13;;;;;;;23.68;59.59;100279.13;5085024;28;20197;-66
2023/06/09 07:10:02;;;;;;;6.97;5.20;;;;;;;26.07;46.45;100291.41;5089979;28;20274;-66
2023/06/09 07:12:28;;;;;;;6.82;5.28;;;;;;;27.30;42.45;100292.84;5087248;28;20226;-66
2023/06/09 07:14:56;;;;;;;8.65;5.00;;;;;;;28.40;39.43;100298.06;5065994;28;20571;-67
2023/06/09 07:17:22;;;;;;;8.85;5.18;;;;;;;27.96;39.77;100289.84;5048194;28;20577;-66
2023/06/09 07:19:49;;;;;;;8.77;5.13;;;;;;;27.98;39.82;100298.81;5067303;28;20209;-66
2023/06/09 07:22:16;;;;;;;5.45;4.90;;;;;;;28.75;38.20;100296.84;5069289;28;20230;-67
2023/06/09 07:24:42;;;;;;;5.90;4.90;;;;;;;29.41;36.51;100286.19;5047255;28;20202;-66
2023/06/09 07:27:08;;;;;;;5.65;4.88;;;;;;;29.48;36.14;100292.13;5048985;28;20534;-69
2023/06/09 07:29:35;;;;;;;5.22;4.38;;;;;;;30.05;35.30;100302.88;5051854;28;20751;-65
2023/06/09 07:32:02;;;;;;;7.18;5.03;;;;;;;30.95;33.41;100296.50;5068131;28;20217;-67
2023/06/09 07:34:33;;;;;;;7.95;5.07;;;;;;;31.40;32.68;100292.28;5067333;28;20198;-67
2023/06/09 07:37:05;;;;;;;7.75;5.05;;;;;;;31.47;32.23;100299.91;5073989;28;20202;-67
2023/06/09 07:39:36;;;;;;;5.82;5.03;;;;;;;31.12;32.88;100301.63;5069284;28;20230;-66
2023/06/09 07:42:03;;;;;;;7.80;5.10;;;;;;;31.27;32.79;100288.72;5055888;28;20779;-67
2023/06/09 07:44:29;;;;;;;8.23;4.85;;;;;;;30.51;33.67;100297.81;5057903;28;20205;-66
2023/06/09 07:46:56;;;;;;;7.32;4.80;;;;;;;30.65;34.18;100296.84;5055881;28;20285;-67
2023/06/09 07:49:22;;;;;;;6.88;4.82;;;;;;;31.11;32.72;100295.28;5062339;28;20194;-66
2023/06/09 07:51:50;;;;;;;5.90;4.60;;;;;;;31.32;32.99;100300.19;5064885;28;20596;-67
2023/06/09 07:54:16;;;;;;;7.03;5.10;;;;;;;30.95;33.38;100302.00;5062820;28;20255;-67
2023/06/09 07:56:48;;;;;;;6.45;4.85;;;;;;;29.69;34.85;100296.19;5066324;28;20215;-66
2023/06/09 07:59:17;;;;;;;5.88;5.00;;;;;;;28.70;37.45;100291.69;5060109;28;20620;-67
2023/06/09 08:01:44;;;;;;;5.88;4.78;;;;;;;28.78;37.27;100291.19;5063880;28;20300;-67
2023/06/09 08:04:10;;;;;;;6.63;5.13;;;;;;;29.68;36.72;100294.44;5059449;28;20412;-67
2023/06/09 08:06:37;;;;;;;9.88;5.20;;;;;;;28.18;38.50;100300.34;5062003;28;20209;-67
2023/06/09 08:09:04;;;;;;;6.68;4.78;;;;;;;27.94;39.64;100291.78;5060774;28;20284;-67
2023/06/09 08:11:31;;;;;;;7.82;5.38;;;;;;;27.94;39.93;100294.50;5059850;28;20237;-67
2023/06/09 08:13:58;;;;;;;6.50;5.13;;;;;;;26.70;42.13;100299.81;5053254;28;20230;-67
2023/06/09 08:16:24;;;;;;;10.15;5.00;;;;;;;27.64;40.98;100296.34;5057057;28;20206;-68
2023/06/09 08:18:51;;;;;;;7.30;4.88;;;;;;;28.23;39.32;100300.94;5058122;28;20233;-67
2023/06/09 08:21:17;;;;;;;5.82;4.82;;;;;;;27.61;40.39;100294.66;5056511;28;20197;-67
2023/06/09 08:23:44;;;;;;;8.07;5.45;;;;;;;26.90;41.50;100307.75;5060378;28;20214;-69
2023/06/09 08:26:10;;;;;;;5.70;4.60;;;;;;;26.51;43.45;100306.25;5054967;28;20199;-66
2023/06/09 08:28:38;;;;;;;6.15;5.00;;;;;;;26.98;42.81;100293.72;5062121;28;20207;-66
2023/06/09 08:31:06;;;;;;;6.95;4.95;;;;;;;27.19;41.88;100295.25;5060919;28;20226;-67
2023/06/09 08:33:34;;;;;;;9.52;5.35;;;;;;;27.18;42.74;100290.78;5043849;28;20223;-66
2023/06/09 08:36:03;;;;;;;6.40;5.15;;;;;;;27.01;41.94;100299.91;5065515;28;20398;-66
2023/06/09 08:38:34;;;;;;;10.55;5.20;;;;;;;26.34;43.06;100299.94;5066614;28;20241;-66
2023/06/09 08:41:08;;;;;;;8.50;5.57;;;;;;;25.67;45.01;100290.72;5065440;28;20190;-65
2023/06/09 08:43:35;;;;;;;6.43;4.90;;;;;;;25.32;45.77;100292.44;5061622;28;20227;-66
2023/06/09 08:46:05;;;;;;;5.82;4.90;;;;;;;25.65;45.65;100298.03;5066284;28;20202;-67
2023/06/09 08:48:35;;;;;;;8.07;4.97;;;;;;;25.69;46.26;100280.66;5066869;28;20198;-65
2023/06/09 08:51:02;;;;;;;6.72;5.22;;;;;;;25.87;44.98;100287.84;5063933;28;20277;-66
2023/06/09 08:53:30;;;;;;;7.40;5.18;;;;;;;25.93;44.21;100278.53;5067543;28;20210;-66
2023/06/09 08:55:59;;;;;;;6.63;4.97;;;;;;;25.91;44.98;100278.59;5063858;28;20207;-65
2023/06/09 08:58:27;;;;;;;11.75;4.90;;;;;;;25.79;44.64;100270.22;5068671;28;20337;-67
2023/06/09 09:00:54;;;;;;;6.45;4.82;;;;;;;26.04;45.27;100278.00;5066183;28;20285;-67
2023/06/09 09:03:20;;;;;;;10.23;5.63;;;;;;;26.03;43.08;100268.97;5064938;28;20602;-67
2023/06/09 09:05:47;;;;;;;5.97;4.70;;;;;;;26.35;42.96;100260.97;5062072;28;20659;-66
2023/06/09 09:08:16;;;;;;;7.40;5.53;;;;;;;26.66;42.25;100268.34;5044855;28;20296;-66
2023/06/09 09:10:45;;;;;;;6.28;4.78;;;;;;;26.90;41.35;100260.66;5062336;28;20275;-66
2023/06/09 09:13:12;;;;;;;6.13;4.57;;;;;;;27.15;40.54;100263.78;5076617;28;20225;-66
2023/06/09 09:15:47;;;;;;;5.20;4.70;;;;;;;27.27;40.74;100264.94;5085381;28;20608;-67
2023/06/09 09:18:14;;;;;;;7.60;4.70;;;;;;;27.36;40.25;100265.28;5084030;28;20204;-67
2023/06/09 09:20:41;;;;;;;5.43;4.68;;;;;;;27.62;40.10;100260.16;5086508;28;20193;-66
2023/06/09 09:23:08;;;;;;;6.32;4.97;;;;;;;27.01;40.28;100258.25;5085295;28;20217;-65
2023/06/09 09:25:34;;;;;;;7.85;4.78;;;;;;;27.16;40.77;100269.13;5084352;28;20280;-66
2023/06/09 09:28:03;;;;;;;5.55;4.80;;;;;;;27.10;40.99;100261.31;5080584;28;20300;-66
2023/06/09 09:30:49;;;;;;;5.93;4.70;;;;;;;26.74;40.82;100268.78;5074476;28;20249;-66
2023/06/09 09:33:24;;;;;;;6.60;4.95;;;;;;;26.90;41.48;100266.09;5076007;28;20709;-66
2023/06/09 09:35:56;;;;;;;8.40;5.30;;;;;;;26.88;40.21;100268.03;5076935;28;20197;-66
2023/06/09 09:38:27;;;;;;;8.55;5.70;;;;;;;26.71;41.37;100260.81;5072863;28;20205;-67
2023/06/09 09:40:56;;;;;;;9.07;5.25;;;;;;;26.62;41.60;100242.28;5076524;28;20277;-67
2023/06/09 09:43:29;;;;;;;7.28;5.00;;;;;;;26.76;40.21;100256.00;5073107;28;20275;-67
2023/06/09 09:46:01;;;;;;;7.53;5.38;;;;;;;26.46;41.51;100264.00;5075904;28;20220;-67
2023/06/09 09:48:27;;;;;;;7.25;5.55;;;;;;;26.43;42.20;100243.31;5075067;28;21107;-67
2023/06/09 09:50:55;;;;;;;6.55;5.18;;;;;;;26.65;42.23;100243.00;5075350;28;20231;-67
2023/06/09 09:53:23;;;;;;;7.25;4.95;;;;;;;26.83;41.05;100239.28;5069370;28;20301;-67
2023/06/09 09:55:52;;;;;;;5.75;5.15;;;;;;;27.21;40.96;100240.78;5084385;28;20608;-67
2023/06/09 09:58:20;;;;;;;5.45;4.95;;;;;;;27.48;41.00;100237.34;5082391;28;20217;-67
2023/06/09 10:00:49;;;;;;;10.77;5.28;;;;;;;27.53;39.55;100234.34;5085739;28;20200;-67
2023/06/09 10:03:18;;;;;;;5.78;4.78;;;;;;;27.54;39.80;100244.25;5082020;28;20228;-68
2023/06/09 10:05:47;;;;;;;6.00;4.88;;;;;;;27.53;39.44;100228.03;5084689;28;20251;-67
2023/06/09 10:08:22;;;;;;;5.50;4.95;;;;;;;27.83;39.09;100228.09;5085628;28;20198;-68
2023/06/09 10:10:51;;;;;;;5.30;4.78;;;;;;;28.06;39.04;100223.00;5085358;28;20308;-67
2023/06/09 10:13:19;;;;;;;6.30;4.80;;;;;;;28.18;37.74;100217.75;5076805;28;20393;-67
2023/06/09 10:15:46;;;;;;;8.00;4.63;;;;;;;28.35;36.34;100218.47;5077302;28;20916;-68
2023/06/09 10:18:12;;;;;;;6.72;4.60;;;;;;;28.51;36.63;100212.94;5077198;28;20227;-68
2023/06/09 10:20:43;;;;;;;5.18;4.68;;;;;;;28.59;36.52;100217.91;5074144;28;20524;-66
2023/06/09 10:23:10;;;;;;;5.18;4.68;;;;;;;28.49;36.26;100219.47;5069084;28;20214;-66
2023/06/09 10:25:37;;;;;;;9.20;4.80;;;;;;;28.13;36.84;100211.72;5078128;28;20200;-66
2023/06/09 10:28:04;;;;;;;5.88;4.95;;;;;;;28.24;36.62;100211.97;5076798;28;20190;-66
2023/06/09 10:30:31;;;;;;;5.93;4.93;;;;;;;28.32;35.85;100210.50;5079360;28;20297;-66
2023/06/09 10:33:20;;;;;;;5.25;4.75;;;;;;;28.39;36.31;100203.69;5078897;28;20239;-66
2023/06/09 10:35:48;;;;;;;6.88;5.20;;;;;;;28.46;36.11;100215.09;5079926;28;20190;-66
2023/06/09 10:38:39;;;;;;;7.22;4.68;;;;;;;28.65;35.95;100202.03;5079538;28;20586;-66
2023/06/09 10:41:27;;;;;;;7.05;4.97;;;;;;;28.46;35.70;100206.06;5079406;28;20711;-67
2023/06/09 10:44:09;;;;;;;7.63;5.40;;;;;;;28.30;36.53;100192.50;5078636;28;20705;-66
2023/06/09 10:46:47;;;;;;;5.80;5.18;;;;;;;28.31;37.17;100197.84;5076414;28;20275;-67
2023/06/09 10:49:26;;;;;;;7.68;5.72;;;;;;;28.62;37.09;100187.72;5076925;28;20691;-66
2023/06/09 10:51:53;;;;;;;9.40;5.40;;;;;;;29.04;36.52;100184.09;5078353;28;20209;-66
2023/06/09 10:54:27;;;;;;;7.70;5.50;;;;;;;29.41;36.36;100189.81;5078116;28;20212;-67
2023/06/09 10:57:00;;;;;;;8.55;5.50;;;;;;;29.26;35.06;100189.00;5077568;28;20600;-67
2023/06/09 10:59:26;;;;;;;5.63;5.13;;;;;;;28.77;35.96;100186.72;5064532;28;20222;-66
2023/06/09 11:02:11;;;;;;;6.05;5.43;;;;;;;28.58;36.25;100178.88;5074046;28;20190;-67
2023/06/09 11:04:38;;;;;;;7.10;5.68;;;;;;;28.63;36.64;100178.59;5078325;28;20201;-67
2023/06/09 11:07:14;;;;;;;6.78;6.03;;;;;;;28.93;36.55;100182.06;5076413;28;20673;-67
2023/06/09 11:09:47;;;;;;;6.60;5.90;;;;;;;28.96;36.04;100176.41;5080334;28;20285;-67
2023/06/09 11:14:48;;;;;;;7.57;5.50;;;;;;;28.44;37.41;100168.00;5054978;28;20202;-67
2023/06/09 11:17:14;;;;;;;6.55;5.30;;;;;;;28.73;35.07;100171.56;5066868;28;20206;-67
2023/06/09 11:19:41;;;;;;;6.65;5.72;;;;;;;29.12;34.93;100169.94;5060842;28;20201;-67
2023/06/09 11:22:11;;;;;;;7.15;5.50;;;;;;;29.31;34.82;100173.19;5054795;28;20190;-66
2023/06/09 11:24:51;;;;;;;7.35;4.60;;;;;;;29.54;30.44;100158.88;5051731;28;20199;-67
2023/06/09 11:27:22;;;;;;;5.10;4.57;;;;;;;29.81;30.10;100160.66;5053288;28;20194;-65
2023/06/09 11:30:08;;;;;;;7.07;4.43;;;;;;;30.17;30.10;100157.22;5058923;28;20214;-67
2023/06/09 11:32:44;;;;;;;6.47;4.93;;;;;;;30.37;29.58;100167.59;5050013;28;20732;-68
2023/06/09 11:35:31;;;;;;;8.93;4.30;;;;;;;30.45;28.75;100161.59;5042791;28;20206;-65
2023/06/09 11:38:00;;;;;;;7.75;4.43;;;;;;;30.27;28.10;100152.84;5060675;28;20209;-67
2023/06/09 11:40:29;;;;;;;5.28;4.60;;;;;;;30.47;28.68;100155.03;5059681;28;20477;-64
2023/06/09 11:42:57;;;;;;;5.57;4.03;;;;;;;30.35;28.26;100142.22;5055738;28;20221;-67
2023/06/09 11:45:24;;;;;;;5.25;4.60;;;;;;;30.51;28.99;100152.94;5057694;28;20209;-67
2023/06/09 11:47:56;;;;;;;6.47;4.63;;;;;;;30.54;29.32;100142.66;5053940;28;20202;-66
2023/06/09 11:50:25;;;;;;;9.13;4.85;;;;;;;30.32;29.33;100161.59;5057401;28;20260;-67
2023/06/09 11:53:06;;;;;;;7.22;5.00;;;;;;;30.34;29.67;100147.81;5066211;28;20225;-66
2023/06/09 11:55:32;;;;;;;6.85;4.53;;;;;;;30.33;29.24;100138.72;5064132;28;20205;-66
2023/06/09 11:57:59;;;;;;;6.93;4.97;;;;;;;30.39;29.23;100143.75;5068868;28;20191;-65
2023/06/09 12:00:30;;;;;;;8.23;4.43;;;;;;;30.16;29.64;100144.56;5073223;28;20232;-66
2023/06/09 12:02:58;;;;;;;6.07;4.53;;;;;;;30.25;30.10;100149.34;5066866;28;20529;-67
2023/06/09 12:05:28;;;;;;;7.35;5.13;;;;;;;30.19;29.82;100147.06;5074366;28;20202;-64
2023/06/09 12:07:55;;;;;;;4.78;4.32;;;;;;;30.43;29.11;100133.50;5063119;28;20191;-67
2023/06/09 12:10:26;;;;;;;10.35;4.88;;;;;;;30.23;29.21;100137.66;5058726;28;20190;-68
2023/06/09 12:12:55;;;;;;;6.30;5.10;;;;;;;30.62;29.79;100136.66;5071744;28;20221;-66
2023/06/09 12:15:23;;;;;;;7.68;4.93;;;;;;;30.71;29.16;100129.63;5062578;28;20205;-68
2023/06/09 12:17:52;;;;;;;7.05;4.63;;;;;;;30.88;28.79;100136.59;5065464;28;20243;-65
2023/06/09 12:20:35;;;;;;;7.55;5.30;;;;;;;30.68;29.14;100127.97;5058799;28;20650;-67
2023/06/09 12:23:13;;;;;;;6.70;4.82;;;;;;;30.34;30.00;100128.69;5062243;28;20300;-67
2023/06/09 12:25:42;;;;;;;7.43;5.45;;;;;;;30.13;30.29;100123.78;5064427;28;20206;-66
2023/06/09 12:28:17;;;;;;;7.10;5.53;;;;;;;29.73;31.06;100125.72;5071288;28;20216;-67
2023/06/09 12:30:49;;;;;;;9.55;5.43;;;;;;;29.46;31.55;100120.31;5069123;28;20288;-67
2023/06/09 12:33:20;;;;;;;5.43;4.78;;;;;;;29.58;32.24;100124.03;5057005;28;20218;-67
2023/06/09 12:35:50;;;;;;;7.63;5.18;;;;;;;30.08;31.05;100104.13;5052960;28;20285;-68
2023/06/09 12:38:26;;;;;;;10.48;5.32;;;;;;;30.49;30.10;100109.31;5039578;28;20195;-68
2023/06/09 12:40:55;;;;;;;7.05;5.00;;;;;;;30.55;28.96;100111.59;5059282;28;20193;-67
2023/06/09 12:43:26;;;;;;;7.60;5.00;;;;;;;31.03;28.53;100106.19;5069270;28;20230;-68
2023/06/09 12:45:54;;;;;;;8.30;4.80;;;;;;;31.22;29.25;100113.03;5058138;28;20206;-66
2023/06/09 12:48:20;;;;;;;8.85;4.88;;;;;;;31.44;26.40;100110.38;5059225;28;20770;-67
2023/06/09 12:50:47;;;;;;;5.93;4.65;;;;;;;31.74;25.52;100093.47;5057202;28;20202;-65
2023/06/09 12:53:14;;;;;;;5.30;4.80;;;;;;;31.96;24.19;100090.72;5062218;28;21161;-65
2023/06/09 12:55:42;;;;;;;5.05;4.43;;;;;;;32.21;24.79;100091.50;5066372;28;20199;-65
2023/06/09 12:58:09;;;;;;;7.07;4.90;;;;;;;32.48;25.00;100083.81;5060618;28;20203;-65
2023/06/09 13:00:37;;;;;;;5.35;4.70;;;;;;;32.33;24.82;100087.78;5068241;28;20213;-65
2023/06/09 13:03:07;;;;;;;5.10;4.57;;;;;;;32.36;24.57;100091.16;5062217;28;20211;-66
2023/06/09 13:05:35;;;;;;;5.82;4.82;;;;;;;32.46;24.72;100090.41;5062699;28;20476;-64
2023/06/09 13:08:03;;;;;;;6.93;4.50;;;;;;;32.19;24.41;100083.41;5070822;28;20195;-64
2023/06/09 13:10:30;;;;;;;6.05;5.18;;;;;;;32.10;24.85;100078.69;5068117;28;20198;-66
2023/06/09 13:12:59;;;;;;;8.38;4.88;;;;;;;32.23;24.96;100087.63;5059304;28;20352;-67
2023/06/09 13:15:26;;;;;;;7.68;4.88;;;;;;;32.24;25.82;100078.41;5046593;28;20202;-65
2023/06/09 13:17:53;;;;;;;6.78;5.00;;;;;;;32.38;25.47;100088.28;5045446;28;20246;-66
2023/06/09 13:20:21;;;;;;;8.05;4.75;;;;;;;32.22;24.44;100083.16;5051258;28;20199;-66
2023/06/09 13:22:47;;;;;;;7.97;5.10;;;;;;;32.33;24.35;100076.81;5039464;28;20225;-65
2023/06/09 13:25:15;;;;;;;6.40;4.22;;;;;;;32.52;25.05;100078.94;5046236;28;20205;-66
2023/06/09 13:27:44;;;;;;;6.75;4.93;;;;;;;32.30;24.69;100082.56;5047295;28;20203;-67
2023/06/09 13:30:11;;;;;;;9.35;5.05;;;;;;;32.17;25.06;100076.31;5048702;28;20195;-66
2023/06/09 13:32:40;;;;;;;5.13;4.68;;;;;;;32.18;24.65;100078.06;5042935;28;20254;-66
2023/06/09 13:35:07;;;;;;;6.45;5.18;;;;;;;32.25;25.31;100074.72;5043511;28;20221;-65
2023/06/09 13:37:34;;;;;;;7.60;5.15;;;;;;;32.41;24.54;100077.94;5030435;28;20580;-66
2023/06/09 13:40:00;;;;;;;7.65;5.00;;;;;;;32.72;24.01;100068.03;5039407;28;20195;-64
2023/06/09 13:42:27;;;;;;;6.65;4.78;;;;;;;32.86;24.52;100074.28;5030842;28;20215;-65
2023/06/09 13:44:53;;;;;;;8.10;4.68;;;;;;;32.97;25.54;100075.09;5036457;28;20199;-63
2023/06/09 13:47:20;;;;;;;5.40;4.68;;;;;;;32.95;24.53;100076.25;5035828;28;20199;-64
2023/06/09 13:49:47;;;;;;;6.45;4.93;;;;;;;33.08;23.94;100070.56;5030393;28;20202;-66
2023/06/09 13:52:13;;;;;;;5.43;4.93;;;;;;;33.26;23.22;100074.50;5032660;28;20219;-65
2023/06/09 13:54:39;;;;;;;6.18;5.20;;;;;;;33.26;23.47;100063.53;5037275;28;20206;-64
2023/06/09 13:57:06;;;;;;;8.05;4.80;;;;;;;32.86;23.19;100064.19;5035792;28;20208;-63
2023/06/09 13:59:36;;;;;;;6.43;4.90;;;;;;;32.73;23.79;100072.50;5032960;28;20202;-65
2023/06/09 14:02:04;;;;;;;6.53;4.70;;;;;;;32.54;22.37;100072.31;5033970;28;20283;-65
2023/06/09 14:04:31;;;;;;;5.07;4.57;;;;;;;32.22;22.48;100060.34;5034534;28;20435;-65
2023/06/09 14:06:58;;;;;;;5.78;4.20;;;;;;;31.72;23.53;100051.63;5035872;28;20199;-66
2023/06/09 14:09:24;;;;;;;4.70;4.22;;;;;;;31.85;24.18;100057.84;5032087;28;20233;-67
2023/06/09 14:11:51;;;;;;;5.45;4.40;;;;;;;31.98;23.16;100057.72;5033168;28;20215;-67
2023/06/09 14:14:17;;;;;;;5.03;4.47;;;;;;;32.16;23.29;100060.88;5030415;28;20288;-66